Time;durP1;ratioP1;P1;durP2;ratioP2;P2;SDS_P1;SDS_P2;PMS_P1;PMS_P2;Temp;Humidity;BMP_temperature;BMP_pressure;BME280_temperature;BME280_humidity;BME280_pressure;Samples;Min_cycle;Max_cycle;Signal;HPM_P1;HPM_P2
2023/12/30 00:01:27;;;;;;;;;;;;;;;;;;5050915;28;1128;-62
2023/12/30 00:03:52;;;;;;;;;;;;;;;;;;5048622;28;4414;-62
2023/12/30 00:06:20;;;;;;;;;;;;;;;;;;5048580;28;4586;-62
2023/12/30 00:08:46;;;;;;;;;;;;;;;;;;5044505;28;4829;-62
2023/12/30 00:11:11;;;;;;;;;;;;;;;;;;5047403;28;4512;-62
2023/12/30 00:13:37;;;;;;;;;;;;;;;;;;5046925;28;4976;-62
2023/12/30 00:16:02;;;;;;;;;;;;;;;;;;5050371;28;1921;-62
2023/12/30 00:18:27;;;;;;;;;;;;;;;;;;5046162;28;5021;-62
2023/12/30 00:20:52;;;;;;;;;;;;;;;;;;5048454;28;5222;-62
2023/12/30 00:23:18;;;;;;;;;;;;;;;;;;5045115;28;5249;-61
2023/12/30 00:25:43;;;;;;;;;;;;;;;;;;5042814;28;5204;-61
2023/12/30 00:28:09;;;;;;;;;;;;;;;;;;5046149;28;1394;-62
2023/12/30 00:30:34;;;;;;;;;;;;;;;;;;5040491;28;4931;-62
2023/12/30 00:32:59;;;;;;;;;;;;;;;;;;5042825;28;4871;-62
2023/12/30 00:35:24;;;;;;;;;;;;;;;;;;5042794;28;5085;-61
2023/12/30 00:37:50;;;;;;;;;;;;;;;;;;5042554;28;5137;-61
2023/12/30 00:40:15;;;;;;;;;;;;;;;;;;5061565;28;3372;-61
2023/12/30 00:42:40;;;;;;;;;;;;;;;;;;5042901;28;5171;-62
2023/12/30 00:45:06;;;;;;;;;;;;;;;;;;5047055;28;5059;-61
2023/12/30 00:47:31;;;;;;;;;;;;;;;;;;5033862;28;5064;-62
2023/12/30 00:49:56;;;;;;;;;;;;;;;;;;5043073;28;5144;-61
2023/12/30 00:52:22;;;;;;;;;;;;;;;;;;5045924;28;1137;-61
2023/12/30 00:54:47;;;;;;;;;;;;;;;;;;5041445;28;4908;-61
2023/12/30 00:57:12;;;;;;;;;;;;;;;;;;5039928;28;5262;-61
2023/12/30 00:59:38;;;;;;;;;;;;;;;;;;5039568;28;5243;-62
2023/12/30 01:02:03;;;;;;;;;;;;;;;;;;5043732;28;5078;-61
2023/12/30 01:04:28;;;;;;;;;;;;;;;;;;5047725;28;5081;-61
2023/12/30 01:06:54;;;;;;;;;;;;;;;;;;5043503;28;3649;-61
2023/12/30 01:09:19;;;;;;;;;;;;;;;;;;5041860;28;4464;-62
2023/12/30 01:11:44;;;;;;;;;;;;;;;;;;5038941;28;4742;-63
2023/12/30 01:14:10;;;;;;;;;;;;;;;;;;5042283;28;5038;-62
2023/12/30 01:16:36;;;;;;;;;;;;;;;;;;5046594;28;4697;-63
2023/12/30 01:19:01;;;;;;;;;;;;;;;;;;5043234;28;3327;-62
2023/12/30 01:21:27;;;;;;;;;;;;;;;;;;5040704;28;4708;-62
2023/12/30 01:23:52;;;;;;;;;;;;;;;;;;5045585;28;4759;-62
2023/12/30 01:26:17;;;;;;;;;;;;;;;;;;4972063;28;2027763;-62
2023/12/30 01:28:43;;;;;;;;;;;;;;;;;;5046275;28;5070;-62
2023/12/30 01:31:08;;;;;;;;;;;;;;;;;;5046822;28;1210;-62
2023/12/30 01:33:33;;;;;;;;;;;;;;;;;;5043982;28;5097;-63
2023/12/30 01:35:58;;;;;;;;;;;;;;;;;;5046005;28;5377;-63
2023/12/30 01:38:24;;;;;;;;;;;;;;;;;;5036798;28;5170;-62
2023/12/30 01:40:49;;;;;;;;;;;;;;;;;;5039002;28;4698;-62
2023/12/30 01:43:24;;;;;;;;;;;;;;;;;;5046864;28;3412;-61
2023/12/30 01:45:50;;;;;;;;;;;;;;;;;;5040322;28;4412;-62
2023/12/30 01:48:15;;;;;;;;;;;;;;;;;;5042727;28;5036;-61
2023/12/30 01:50:40;;;;;;;;;;;;;;;;;;5044692;28;4684;-62
2023/12/30 01:53:06;;;;;;;;;;;;;;;;;;5041156;28;4725;-62
2023/12/30 01:55:31;;;;;;;;;;;;;;;;;;5037853;28;5163;-62
2023/12/30 01:57:56;;;;;;;;;;;;;;;;;;5044345;28;3668;-62
2023/12/30 02:00:21;;;;;;;;;;;;;;;;;;5042761;28;4433;-62
2023/12/30 02:02:47;;;;;;;;;;;;;;;;;;5033967;28;4958;-62
2023/12/30 02:05:12;;;;;;;;;;;;;;;;;;5042366;28;5032;-62
2023/12/30 02:07:38;;;;;;;;;;;;;;;;;;5036686;28;5152;-62
2023/12/30 02:10:03;;;;;;;;;;;;;;;;;;5042369;28;4152;-62
2023/12/30 02:12:28;;;;;;;;;;;;;;;;;;5036799;28;5080;-62
2023/12/30 02:14:54;;;;;;;;;;;;;;;;;;5043789;28;5142;-62
2023/12/30 02:17:19;;;;;;;;;;;;;;;;;;5036458;28;4610;-61
2023/12/30 02:19:44;;;;;;;;;;;;;;;;;;5045698;28;4547;-61
2023/12/30 02:22:10;;;;;;;;;;;;;;;;;;5047948;28;1112;-61
2023/12/30 02:24:35;;;;;;;;;;;;;;;;;;5035325;28;4542;-61
2023/12/30 02:27:00;;;;;;;;;;;;;;;;;;5040250;28;4721;-61
2023/12/30 02:29:25;;;;;;;;;;;;;;;;;;5044081;28;5063;-61
2023/12/30 02:31:51;;;;;;;;;;;;;;;;;;5034576;28;5282;-62
2023/12/30 02:34:17;;;;;;;;;;;;;;;;;;5045687;28;5019;-61
2023/12/30 02:36:42;;;;;;;;;;;;;;;;;;5039228;28;4974;-61
2023/12/30 02:39:08;;;;;;;;;;;;;;;;;;5041386;28;4837;-61
2023/12/30 02:41:33;;;;;;;;;;;;;;;;;;5034948;28;5265;-61
2023/12/30 02:44:02;;;;;;;;;;;;;;;;;;5036876;28;5143;-61
2023/12/30 02:46:27;;;;;;;;;;;;;;;;;;5044987;28;3452;-62
2023/12/30 02:48:52;;;;;;;;;;;;;;;;;;5042212;28;5055;-61
2023/12/30 02:51:18;;;;;;;;;;;;;;;;;;5039470;28;4489;-62
2023/12/30 02:53:43;;;;;;;;;;;;;;;;;;5043294;28;4700;-61
2023/12/30 02:56:18;;;;;;;;;;;;;;;;;;5039817;28;5196;-62
2023/12/30 02:58:43;;;;;;;;;;;;;;;;;;5040755;28;5192;-61
2023/12/30 03:01:09;;;;;;;;;;;;;;;;;;5021354;28;3416;-61
2023/12/30 03:03:34;;;;;;;;;;;;;;;;;;5039211;28;4980;-61
2023/12/30 03:06:00;;;;;;;;;;;;;;;;;;5035915;28;5046;-62
2023/12/30 03:08:25;;;;;;;;;;;;;;;;;;5041041;28;4653;-62
2023/12/30 03:10:50;;;;;;;;;;;;;;;;;;5040064;28;5258;-61
2023/12/30 03:13:15;;;;;;;;;;;;;;;;;;5040933;28;3555;-61
2023/12/30 03:15:41;;;;;;;;;;;;;;;;;;5040054;28;5081;-62
2023/12/30 03:18:06;;;;;;;;;;;;;;;;;;5044193;28;5194;-62
2023/12/30 03:20:31;;;;;;;;;;;;;;;;;;5042415;28;4978;-62
2023/12/30 03:22:56;;;;;;;;;;;;;;;;;;5033597;28;5440;-62
2023/12/30 03:25:22;;;;;;;;;;;;;;;;;;5046039;28;3451;-61
2023/12/30 03:27:47;;;;;;;;;;;;;;;;;;5039748;28;5005;-61
2023/12/30 03:30:12;;;;;;;;;;;;;;;;;;5039993;28;4993;-61
2023/12/30 03:32:38;;;;;;;;;;;;;;;;;;5042661;28;5157;-61
2023/12/30 03:35:03;;;;;;;;;;;;;;;;;;5044431;28;5266;-61
2023/12/30 03:37:29;;;;;;;;;;;;;;;;;;5045720;28;4503;-62
2023/12/30 03:39:54;;;;;;;;;;;;;;;;;;5045428;28;3594;-62
2023/12/30 03:42:19;;;;;;;;;;;;;;;;;;5036649;28;5145;-62
2023/12/30 03:44:44;;;;;;;;;;;;;;;;;;5037281;28;4722;-61
2023/12/30 03:47:10;;;;;;;;;;;;;;;;;;5044394;28;5141;-63
2023/12/30 03:49:35;;;;;;;;;;;;;;;;;;5045437;28;4469;-62
2023/12/30 03:52:00;;;;;;;;;;;;;;;;;;5046385;28;1064;-61
2023/12/30 03:54:26;;;;;;;;;;;;;;;;;;5044808;28;4700;-61
2023/12/30 03:56:51;;;;;;;;;;;;;;;;;;5044151;28;5076;-62
2023/12/30 03:59:17;;;;;;;;;;;;;;;;;;5044117;28;5094;-62
2023/12/30 04:01:43;;;;;;;;;;;;;;;;;;5045034;28;4998;-62
2023/12/30 04:04:08;;;;;;;;;;;;;;;;;;5041928;28;3397;-62
2023/12/30 04:06:33;;;;;;;;;;;;;;;;;;5042166;28;5186;-63
2023/12/30 04:08:58;;;;;;;;;;;;;;;;;;5036006;28;5133;-61
2023/12/30 04:11:24;;;;;;;;;;;;;;;;;;5042918;28;5119;-62
2023/12/30 04:13:49;;;;;;;;;;;;;;;;;;5040880;28;4571;-62
2023/12/30 04:16:14;;;;;;;;;;;;;;;;;;5041357;28;3967;-60
2023/12/30 04:18:40;;;;;;;;;;;;;;;;;;5040540;28;5115;-63
2023/12/30 04:21:05;;;;;;;;;;;;;;;;;;5046481;28;5209;-61
2023/12/30 04:23:31;;;;;;;;;;;;;;;;;;5043315;28;5595;-61
2023/12/30 04:25:56;;;;;;;;;;;;;;;;;;5040733;28;5093;-61
2023/12/30 04:28:21;;;;;;;;;;;;;;;;;;5041599;28;3357;-61
2023/12/30 04:30:47;;;;;;;;;;;;;;;;;;5043445;28;5079;-61
2023/12/30 04:33:12;;;;;;;;;;;;;;;;;;5042074;28;4776;-61
2023/12/30 04:35:39;;;;;;;;;;;;;;;;;;5044745;28;5397;-61
2023/12/30 04:38:05;;;;;;;;;;;;;;;;;;5041792;28;5099;-62
2023/12/30 04:40:30;;;;;;;;;;;;;;;;;;5045919;28;5242;-62
2023/12/30 04:42:55;;;;;;;;;;;;;;;;;;5043718;28;3689;-61
2023/12/30 04:45:21;;;;;;;;;;;;;;;;;;5041812;28;5071;-62
2023/12/30 04:47:46;;;;;;;;;;;;;;;;;;5041189;28;5127;-62
2023/12/30 04:50:11;;;;;;;;;;;;;;;;;;5046732;28;5094;-61
2023/12/30 04:52:36;;;;;;;;;;;;;;;;;;5045916;28;4638;-62
2023/12/30 04:55:02;;;;;;;;;;;;;;;;;;5047668;28;3144;-62
2023/12/30 04:57:28;;;;;;;;;;;;;;;;;;5041979;28;5062;-62
2023/12/30 04:59:53;;;;;;;;;;;;;;;;;;5047843;28;4745;-62
2023/12/30 05:02:18;;;;;;;;;;;;;;;;;;5042337;28;5294;-62
2023/12/30 05:04:43;;;;;;;;;;;;;;;;;;5037737;28;5162;-63
2023/12/30 05:07:09;;;;;;;;;;;;;;;;;;5046703;28;3415;-62
2023/12/30 05:09:35;;;;;;;;;;;;;;;;;;5044700;28;4671;-62
2023/12/30 05:12:00;;;;;;;;;;;;;;;;;;5045839;28;5152;-62
2023/12/30 05:14:26;;;;;;;;;;;;;;;;;;5047076;28;4997;-62
2023/12/30 05:16:51;;;;;;;;;;;;;;;;;;5047598;28;5261;-61
2023/12/30 05:19:16;;;;;;;;;;;;;;;;;;5046731;28;3630;-62
2023/12/30 05:21:41;;;;;;;;;;;;;;;;;;5046937;28;4951;-61
2023/12/30 05:24:07;;;;;;;;;;;;;;;;;;5047380;28;5048;-62
2023/12/30 05:26:32;;;;;;;;;;;;;;;;;;5039557;28;5263;-62
2023/12/30 05:28:57;;;;;;;;;;;;;;;;;;5036734;28;5265;-61
2023/12/30 05:31:23;;;;;;;;;;;;;;;;;;5047714;28;1166;-62
2023/12/30 05:33:48;;;;;;;;;;;;;;;;;;5046950;28;5093;-61
2023/12/30 05:36:13;;;;;;;;;;;;;;;;;;5039803;28;5098;-62
2023/12/30 05:38:39;;;;;;;;;;;;;;;;;;5043094;28;5096;-63
2023/12/30 05:41:04;;;;;;;;;;;;;;;;;;5036490;28;4922;-62
2023/12/30 05:43:29;;;;;;;;;;;;;;;;;;5042244;28;4746;-61
2023/12/30 05:45:55;;;;;;;;;;;;;;;;;;5043217;28;3675;-61
2023/12/30 05:48:20;;;;;;;;;;;;;;;;;;5035029;28;4456;-61
2023/12/30 05:50:45;;;;;;;;;;;;;;;;;;5041715;28;5025;-61
2023/12/30 05:53:11;;;;;;;;;;;;;;;;;;5045815;28;5283;-61
2023/12/30 05:55:37;;;;;;;;;;;;;;;;;;5045510;28;5227;-61
2023/12/30 05:58:02;;;;;;;;;;;;;;;;;;5044042;28;3355;-63
2023/12/30 06:00:27;;;;;;;;;;;;;;;;;;5043731;28;4642;-61
2023/12/30 06:02:53;;;;;;;;;;;;;;;;;;5035834;28;5115;-62
2023/12/30 06:05:18;;;;;;;;;;;;;;;;;;5041849;28;5177;-61
2023/12/30 06:07:43;;;;;;;;;;;;;;;;;;5037384;28;4701;-61
2023/12/30 06:10:09;;;;;;;;;;;;;;;;;;5041664;28;3400;-62
2023/12/30 06:12:34;;;;;;;;;;;;;;;;;;5043886;28;5041;-61
2023/12/30 06:14:59;;;;;;;;;;;;;;;;;;5038383;28;5070;-62
2023/12/30 06:17:24;;;;;;;;;;;;;;;;;;5040926;28;4733;-61
2023/12/30 06:19:50;;;;;;;;;;;;;;;;;;5042274;28;4919;-61
2023/12/30 06:22:15;;;;;;;;;;;;;;;;;;5047073;28;3412;-62
2023/12/30 06:24:41;;;;;;;;;;;;;;;;;;5041190;28;4498;-62
2023/12/30 06:27:06;;;;;;;;;;;;;;;;;;5038078;28;4546;-61
2023/12/30 06:29:31;;;;;;;;;;;;;;;;;;5039363;28;5118;-61
2023/12/30 06:31:57;;;;;;;;;;;;;;;;;;5038854;28;5089;-61
2023/12/30 06:34:23;;;;;;;;;;;;;;;;;;5038680;28;5051;-61
2023/12/30 06:36:48;;;;;;;;;;;;;;;;;;5038553;28;4921;-62
2023/12/30 06:39:15;;;;;;;;;;;;;;;;;;5038889;28;4641;-61
2023/12/30 06:41:41;;;;;;;;;;;;;;;;;;5033826;28;4792;-62
2023/12/30 06:44:06;;;;;;;;;;;;;;;;;;5033461;28;5082;-61
2023/12/30 06:46:33;;;;;;;;;;;;;;;;;;5039869;28;5331;-63
2023/12/30 06:48:58;;;;;;;;;;;;;;;;;;5039950;28;3632;-62
2023/12/30 06:51:24;;;;;;;;;;;;;;;;;;5038144;28;5065;-62
2023/12/30 06:53:49;;;;;;;;;;;;;;;;;;5041229;28;4503;-62
2023/12/30 06:56:15;;;;;;;;;;;;;;;;;;5041513;28;5192;-62
2023/12/30 06:58:41;;;;;;;;;;;;;;;;;;5040778;28;5131;-62
2023/12/30 07:01:07;;;;;;;;;;;;;;;;;;5033591;28;3618;-63
2023/12/30 07:03:32;;;;;;;;;;;;;;;;;;5044858;28;4493;-62
2023/12/30 07:05:58;;;;;;;;;;;;;;;;;;5041076;28;4748;-63
2023/12/30 07:08:23;;;;;;;;;;;;;;;;;;5044465;28;4516;-62
2023/12/30 07:10:48;;;;;;;;;;;;;;;;;;5041475;28;5082;-62
2023/12/30 07:13:14;;;;;;;;;;;;;;;;;;5038330;28;3406;-63
2023/12/30 07:15:39;;;;;;;;;;;;;;;;;;5040390;28;5246;-62
2023/12/30 07:18:04;;;;;;;;;;;;;;;;;;5041989;28;5114;-62
2023/12/30 07:20:30;;;;;;;;;;;;;;;;;;5043593;28;4785;-62
2023/12/30 07:22:55;;;;;;;;;;;;;;;;;;5042977;28;5136;-62
2023/12/30 07:25:20;;;;;;;;;;;;;;;;;;5035440;28;3505;-62
2023/12/30 07:27:46;;;;;;;;;;;;;;;;;;5035459;28;5163;-63
2023/12/30 07:30:11;;;;;;;;;;;;;;;;;;5035628;28;4496;-64
2023/12/30 07:32:37;;;;;;;;;;;;;;;;;;5033097;28;5146;-62
2023/12/30 07:35:05;;;;;;;;;;;;;;;;;;5040392;28;5234;-62
2023/12/30 07:37:30;;;;;;;;;;;;;;;;;;5029302;28;4573;-62
2023/12/30 07:39:56;;;;;;;;;;;;;;;;;;5034669;28;3540;-63
2023/12/30 07:42:21;;;;;;;;;;;;;;;;;;5035140;28;5052;-63
2023/12/30 07:44:46;;;;;;;;;;;;;;;;;;5038456;28;5105;-64
2023/12/30 07:47:11;;;;;;;;;;;;;;;;;;5041495;28;5527;-64
2023/12/30 07:49:37;;;;;;;;;;;;;;;;;;5043135;28;5274;-63
2023/12/30 07:52:02;;;;;;;;;;;;;;;;;;5039838;28;3622;-63
2023/12/30 07:54:28;;;;;;;;;;;;;;;;;;5043360;28;4716;-64
2023/12/30 07:56:53;;;;;;;;;;;;;;;;;;5025215;28;5246;-63
2023/12/30 07:59:18;;;;;;;;;;;;;;;;;;5050063;28;5056;-63
2023/12/30 08:01:44;;;;;;;;;;;;;;;;;;5049262;28;5055;-64
2023/12/30 08:04:09;;;;;;;;;;;;;;;;;;5046806;28;3490;-64
2023/12/30 08:06:34;;;;;;;;;;;;;;;;;;5038028;28;5109;-63
2023/12/30 08:09:00;;;;;;;;;;;;;;;;;;5037524;28;5390;-64
2023/12/30 08:11:25;;;;;;;;;;;;;;;;;;5039325;28;4978;-64
2023/12/30 08:13:51;;;;;;;;;;;;;;;;;;5047099;28;5116;-64
2023/12/30 08:16:16;;;;;;;;;;;;;;;;;;5042990;28;3779;-63
2023/12/30 08:18:41;;;;;;;;;;;;;;;;;;5040667;28;5370;-63
2023/12/30 08:21:06;;;;;;;;;;;;;;;;;;5041021;28;4993;-63
2023/12/30 08:23:32;;;;;;;;;;;;;;;;;;5040392;28;5115;-63
2023/12/30 08:25:57;;;;;;;;;;;;;;;;;;5042631;28;4601;-62
2023/12/30 08:28:22;;;;;;;;;;;;;;;;;;5045138;28;3061;-63
2023/12/30 08:30:48;;;;;;;;;;;;;;;;;;5040990;28;5028;-64
2023/12/30 08:33:14;;;;;;;;;;;;;;;;;;5045285;28;5087;-63
2023/12/30 08:35:39;;;;;;;;;;;;;;;;;;5035991;28;5045;-64
2023/12/30 08:38:04;;;;;;;;;;;;;;;;;;5045377;28;4575;-64
2023/12/30 08:40:30;;;;;;;;;;;;;;;;;;5043788;28;5061;-63
2023/12/30 08:42:55;;;;;;;;;;;;;;;;;;5041521;28;3632;-64
2023/12/30 08:45:20;;;;;;;;;;;;;;;;;;5047950;28;5293;-64
2023/12/30 08:47:46;;;;;;;;;;;;;;;;;;5040167;28;5314;-63
2023/12/30 08:50:11;;;;;;;;;;;;;;;;;;5042852;28;5207;-63
2023/12/30 08:52:37;;;;;;;;;;;;;;;;;;5044025;28;4539;-63
2023/12/30 08:55:02;;;;;;;;;;;;;;;;;;5039700;28;3602;-65
2023/12/30 08:57:27;;;;;;;;;;;;;;;;;;5041524;28;5433;-62
2023/12/30 08:59:52;;;;;;;;;;;;;;;;;;5035367;28;5030;-62
2023/12/30 09:02:18;;;;;;;;;;;;;;;;;;5040230;28;4961;-64
2023/12/30 09:04:43;;;;;;;;;;;;;;;;;;5042688;28;4534;-63
2023/12/30 09:07:09;;;;;;;;;;;;;;;;;;5044315;28;3439;-63
2023/12/30 09:09:34;;;;;;;;;;;;;;;;;;5040633;28;5104;-63
2023/12/30 09:12:00;;;;;;;;;;;;;;;;;;5041298;28;5104;-62
2023/12/30 09:14:25;;;;;;;;;;;;;;;;;;5039966;28;5261;-62
2023/12/30 09:16:50;;;;;;;;;;;;;;;;;;5041909;28;5237;-62
2023/12/30 09:19:16;;;;;;;;;;;;;;;;;;5041560;28;3275;-62
2023/12/30 09:21:41;;;;;;;;;;;;;;;;;;5041828;28;5136;-60
2023/12/30 09:24:06;;;;;;;;;;;;;;;;;;5040474;28;4912;-61
2023/12/30 09:26:32;;;;;;;;;;;;;;;;;;5035155;28;5153;-61
2023/12/30 09:28:57;;;;;;;;;;;;;;;;;;5033700;28;5118;-61
2023/12/30 09:31:24;;;;;;;;;;;;;;;;;;5039033;28;3646;-61
2023/12/30 09:33:50;;;;;;;;;;;;;;;;;;5037523;28;4938;-64
2023/12/30 09:36:15;;;;;;;;;;;;;;;;;;5042272;28;4678;-63
2023/12/30 09:38:41;;;;;;;;;;;;;;;;;;5036189;28;5214;-63
2023/12/30 09:41:06;;;;;;;;;;;;;;;;;;5042098;28;4768;-63
2023/12/30 09:43:31;;;;;;;;;;;;;;;;;;5040157;28;4906;-63
2023/12/30 09:45:56;;;;;;;;;;;;;;;;;;5040892;28;3415;-63
2023/12/30 09:48:25;;;;;;;;;;;;;;;;;;5040310;28;4536;-63
2023/12/30 09:50:51;;;;;;;;;;;;;;;;;;5043528;28;5032;-63
2023/12/30 09:53:16;;;;;;;;;;;;;;;;;;5043787;28;4494;-63
2023/12/30 09:55:45;;;;;;;;;;;;;;;;;;5038018;28;5614;-63
2023/12/30 09:58:10;;;;;;;;;;;;;;;;;;5045744;28;1164;-62
2023/12/30 10:00:37;;;;;;;;;;;;;;;;;;5042002;28;4873;-63
2023/12/30 10:03:03;;;;;;;;;;;;;;;;;;5044024;28;4979;-62
2023/12/30 10:05:28;;;;;;;;;;;;;;;;;;5046004;28;5120;-63
2023/12/30 10:07:53;;;;;;;;;;;;;;;;;;5039135;28;4670;-62
2023/12/30 10:10:35;;;;;;;;;;;;;;;;;;5047181;28;1100;-63
2023/12/30 10:13:00;;;;;;;;;;;;;;;;;;5046537;28;5122;-63
2023/12/30 10:15:25;;;;;;;;;;;;;;;;;;5043534;28;5112;-62
2023/12/30 10:17:50;;;;;;;;;;;;;;;;;;5042142;28;5108;-62
2023/12/30 10:20:23;;;;;;;;;;;;;;;;;;5039226;28;5040;-63
2023/12/30 10:22:48;;;;;;;;;;;;;;;;;;5047104;28;4655;-62
2023/12/30 10:25:13;;;;;;;;;;;;;;;;;;5041371;28;3294;-68
2023/12/30 10:27:38;;;;;;;;;;;;;;;;;;5039552;28;4492;-64
2023/12/30 10:30:04;;;;;;;;;;;;;;;;;;5038774;28;5288;-66
2023/12/30 10:32:29;;;;;;;;;;;;;;;;;;5042080;28;5285;-64
2023/12/30 10:34:55;;;;;;;;;;;;;;;;;;5033912;28;5204;-65
2023/12/30 10:37:20;;;;;;;;;;;;;;;;;;5040488;28;3422;-64
2023/12/30 10:39:46;;;;;;;;;;;;;;;;;;5038376;28;5015;-64
2023/12/30 10:42:12;;;;;;;;;;;;;;;;;;5041350;28;5216;-65
2023/12/30 10:44:38;;;;;;;;;;;;;;;;;;5039731;28;4554;-67
2023/12/30 10:47:03;;;;;;;;;;;;;;;;;;5037901;28;5148;-67
2023/12/30 10:49:28;;;;;;;;;;;;;;;;;;5051866;28;4722;-69
2023/12/30 10:51:54;;;;;;;;;;;;;;;;;;5040122;28;3631;-67
2023/12/30 10:54:20;;;;;;;;;;;;;;;;;;5041580;28;5155;-69
2023/12/30 10:56:47;;;;;;;;;;;;;;;;;;5040483;28;4676;-67
2023/12/30 10:59:13;;;;;;;;;;;;;;;;;;5041161;28;5879;-67
2023/12/30 11:01:38;;;;;;;;;;;;;;;;;;5042518;28;5071;-66
2023/12/30 11:04:11;;;;;;;;;;;;;;;;;;5046114;28;3115;-67
2023/12/30 11:06:56;;;;;;;;;;;;;;;;;;5038697;28;5192;-69
2023/12/30 11:09:22;;;;;;;;;;;;;;;;;;5034570;28;4522;-67
2023/12/30 11:11:48;;;;;;;;;;;;;;;;;;5040417;28;5407;-67
2023/12/30 11:14:14;;;;;;;;;;;;;;;;;;5038740;28;4702;-67
2023/12/30 11:16:40;;;;;;;;;;;;;;;;;;5039274;28;5056;-69
2023/12/30 11:19:05;;;;;;;;;;;;;;;;;;5034468;28;3388;-68
2023/12/30 11:21:44;;;;;;;;;;;;;;;;;;5032203;28;4970;-66
2023/12/30 11:24:13;;;;;;;;;;;;;;;;;;5043199;28;5118;-68
2023/12/30 11:26:42;;;;;;;;;;;;;;;;;;5032948;28;5127;-70
2023/12/30 11:29:11;;;;;;;;;;;;;;;;;;5040942;28;4709;-71
2023/12/30 11:31:37;;;;;;;;;;;;;;;;;;5043916;28;5134;-67
2023/12/30 11:34:02;;;;;;;;;;;;;;;;;;5042184;28;5041;-67
2023/12/30 11:36:28;;;;;;;;;;;;;;;;;;5044582;28;5052;-68
2023/12/30 11:38:54;;;;;;;;;;;;;;;;;;5049067;28;4903;-68
2023/12/30 11:41:19;;;;;;;;;;;;;;;;;;5047145;28;4730;-69
2023/12/30 11:43:44;;;;;;;;;;;;;;;;;;5042804;28;4515;-68
2023/12/30 11:46:10;;;;;;;;;;;;;;;;;;5039806;28;3492;-69
2023/12/30 11:48:35;;;;;;;;;;;;;;;;;;5046934;28;5492;-68
2023/12/30 11:51:00;;;;;;;;;;;;;;;;;;5042759;28;5093;-68
2023/12/30 11:53:26;;;;;;;;;;;;;;;;;;5043737;28;5066;-69
2023/12/30 11:55:51;;;;;;;;;;;;;;;;;;5044998;28;5097;-69
2023/12/30 11:58:17;;;;;;;;;;;;;;;;;;5049348;28;1116;-67
2023/12/30 12:00:42;;;;;;;;;;;;;;;;;;5049943;28;5124;-65
2023/12/30 12:03:07;;;;;;;;;;;;;;;;;;5050209;28;5107;-67
2023/12/30 12:05:33;;;;;;;;;;;;;;;;;;5046372;28;5102;-67
2023/12/30 12:07:58;;;;;;;;;;;;;;;;;;5046021;28;5073;-68
2023/12/30 12:10:24;;;;;;;;;;;;;;;;;;5050400;28;1128;-68
2023/12/30 12:12:49;;;;;;;;;;;;;;;;;;5045975;28;5372;-70
2023/12/30 12:15:14;;;;;;;;;;;;;;;;;;5048133;28;4538;-69
2023/12/30 12:17:40;;;;;;;;;;;;;;;;;;5045849;28;5100;-68
2023/12/30 12:20:10;;;;;;;;;;;;;;;;;;5047051;28;4670;-68
2023/12/30 12:22:35;;;;;;;;;;;;;;;;;;5048890;28;4971;-69
2023/12/30 12:25:02;;;;;;;;;;;;;;;;;;5045644;28;2619;-66
2023/12/30 12:27:27;;;;;;;;;;;;;;;;;;5043893;28;5511;-69
2023/12/30 12:29:54;;;;;;;;;;;;;;;;;;5049900;28;5064;-69
2023/12/30 12:32:22;;;;;;;;;;;;;;;;;;5043570;28;4709;-69
2023/12/30 12:34:48;;;;;;;;;;;;;;;;;;5044803;28;5149;-68
2023/12/30 12:37:16;;;;;;;;;;;;;;;;;;5049391;28;1918;-69
2023/12/30 12:39:42;;;;;;;;;;;;;;;;;;5046098;28;5601;-70
2023/12/30 12:42:07;;;;;;;;;;;;;;;;;;5047552;28;5174;-70
2023/12/30 12:44:33;;;;;;;;;;;;;;;;;;5047821;28;5229;-69
2023/12/30 12:46:58;;;;;;;;;;;;;;;;;;5047790;28;5038;-69
2023/12/30 12:49:23;;;;;;;;;;;;;;;;;;5048002;28;3709;-70
2023/12/30 12:51:49;;;;;;;;;;;;;;;;;;5044314;28;4606;-70
2023/12/30 12:54:15;;;;;;;;;;;;;;;;;;5046104;28;5053;-68
2023/12/30 12:56:42;;;;;;;;;;;;;;;;;;5048493;28;4746;-69
2023/12/30 12:59:08;;;;;;;;;;;;;;;;;;5045869;28;5057;-69
2023/12/30 13:01:33;;;;;;;;;;;;;;;;;;5044873;28;4797;-69
2023/12/30 13:03:58;;;;;;;;;;;;;;;;;;5049271;28;1226;-69
2023/12/30 13:06:24;;;;;;;;;;;;;;;;;;5045828;28;5013;-67
2023/12/30 13:08:52;;;;;;;;;;;;;;;;;;5044777;28;4678;-68
2023/12/30 13:11:25;;;;;;;;;;;;;;;;;;5048648;28;5923;-67
2023/12/30 13:13:52;;;;;;;;;;;;;;;;;;5039783;28;4972;-68
2023/12/30 13:16:18;;;;;;;;;;;;;;;;;;5044893;28;2487;-70
2023/12/30 13:18:43;;;;;;;;;;;;;;;;;;5048587;28;4962;-68
2023/12/30 13:21:09;;;;;;;;;;;;;;;;;;5045346;28;5069;-68
2023/12/30 13:23:34;;;;;;;;;;;;;;;;;;5048648;28;5080;-68
2023/12/30 13:26:00;;;;;;;;;;;;;;;;;;5046556;28;4544;-70
2023/12/30 13:28:26;;;;;;;;;;;;;;;;;;5044681;28;3462;-67
2023/12/30 13:30:51;;;;;;;;;;;;;;;;;;5048874;28;4435;-68
2023/12/30 13:33:20;;;;;;;;;;;;;;;;;;5048482;28;4457;-67
2023/12/30 13:35:46;;;;;;;;;;;;;;;;;;5037909;28;5160;-67
2023/12/30 13:38:12;;;;;;;;;;;;;;;;;;5047953;28;5210;-69
2023/12/30 13:40:40;;;;;;;;;;;;;;;;;;5045841;28;4536;-70
2023/12/30 13:43:09;;;;;;;;;;;;;;;;;;5048479;28;1010;-68
2023/12/30 13:45:46;;;;;;;;;;;;;;;;;;5047514;28;4891;-68
2023/12/30 13:48:48;;;;;;;;;;;;;;;;;;5048309;28;5117;-68
2023/12/30 13:51:11;;;;;;;;;;;;;;;;;;5036212;28;5106;-68
2023/12/30 13:53:36;;;;;;;;;;;;;;;;;;5043420;28;5107;-67
2023/12/30 13:56:05;;;;;;;;;;;;;;;;;;5047761;28;5113;-67
2023/12/30 13:58:30;;;;;;;;;;;;;;;;;;5044794;28;4464;-68
2023/12/30 14:00:55;;;;;;;;;;;;;;;;;;5042463;28;3487;-68
2023/12/30 14:03:22;;;;;;;;;;;;;;;;;;5045489;28;5046;-67
2023/12/30 14:05:48;;;;;;;;;;;;;;;;;;5046061;28;5017;-68
2023/12/30 14:08:36;;;;;;;;;;;;;;;;;;5040755;28;4947;-69
2023/12/30 14:11:07;;;;;;;;;;;;;;;;;;5043204;28;4802;-69
2023/12/30 14:13:32;;;;;;;;;;;;;;;;;;5043146;28;4581;-68
2023/12/30 14:15:57;;;;;;;;;;;;;;;;;;5041818;28;3467;-68
2023/12/30 14:18:23;;;;;;;;;;;;;;;;;;5042480;28;4711;-67
2023/12/30 14:20:48;;;;;;;;;;;;;;;;;;5039673;28;5468;-68
2023/12/30 14:23:14;;;;;;;;;;;;;;;;;;5046894;28;4685;-68
2023/12/30 14:25:39;;;;;;;;;;;;;;;;;;5047070;28;5170;-68
2023/12/30 14:28:05;;;;;;;;;;;;;;;;;;5042181;28;3268;-68
2023/12/30 14:30:34;;;;;;;;;;;;;;;;;;5043862;28;5064;-68
2023/12/30 14:32:59;;;;;;;;;;;;;;;;;;5044675;28;4481;-67
2023/12/30 14:35:24;;;;;;;;;;;;;;;;;;5044282;28;5397;-68
2023/12/30 14:37:50;;;;;;;;;;;;;;;;;;5043598;28;5163;-68
2023/12/30 14:40:15;;;;;;;;;;;;;;;;;;5047336;28;1074;-69
2023/12/30 14:42:41;;;;;;;;;;;;;;;;;;5043572;28;5021;-67
2023/12/30 14:45:06;;;;;;;;;;;;;;;;;;5046250;28;5067;-67
2023/12/30 14:47:32;;;;;;;;;;;;;;;;;;5044834;28;4603;-67
2023/12/30 14:49:57;;;;;;;;;;;;;;;;;;5046101;28;4524;-68
2023/12/30 14:52:22;;;;;;;;;;;;;;;;;;5047031;28;1155;-67
2023/12/30 14:54:48;;;;;;;;;;;;;;;;;;5046809;28;4932;-67
2023/12/30 14:57:13;;;;;;;;;;;;;;;;;;5044049;28;5837;-68
2023/12/30 14:59:38;;;;;;;;;;;;;;;;;;5045556;28;5004;-68
2023/12/30 15:02:04;;;;;;;;;;;;;;;;;;5041991;28;5091;-67
2023/12/30 15:04:29;;;;;;;;;;;;;;;;;;5043835;28;4974;-67
2023/12/30 15:06:55;;;;;;;;;;;;;;;;;;5033717;28;3419;-67
2023/12/30 15:09:21;;;;;;;;;;;;;;;;;;5039011;28;5086;-68
2023/12/30 15:11:46;;;;;;;;;;;;;;;;;;5043813;28;4506;-68
2023/12/30 15:14:12;;;;;;;;;;;;;;;;;;5039790;28;5236;-68
2023/12/30 15:16:37;;;;;;;;;;;;;;;;;;5033343;28;5035;-69
2023/12/30 15:19:02;;;;;;;;;;;;;;;;;;5039508;28;3413;-70
2023/12/30 15:21:28;;;;;;;;;;;;;;;;;;5042141;28;4975;-68
2023/12/30 15:23:53;;;;;;;;;;;;;;;;;;5036217;28;4538;-68
2023/12/30 15:26:18;;;;;;;;;;;;;;;;;;5032565;28;5134;-69
2023/12/30 15:28:43;;;;;;;;;;;;;;;;;;5037580;28;4991;-68
2023/12/30 15:31:09;;;;;;;;;;;;;;;;;;5044060;28;3319;-67
2023/12/30 15:33:34;;;;;;;;;;;;;;;;;;5033808;28;4578;-68
2023/12/30 15:36:02;;;;;;;;;;;;;;;;;;5036831;28;5327;-67
2023/12/30 15:38:28;;;;;;;;;;;;;;;;;;5037755;28;4691;-67
2023/12/30 15:40:53;;;;;;;;;;;;;;;;;;5041012;28;4688;-67
2023/12/30 15:43:18;;;;;;;;;;;;;;;;;;5043472;28;3252;-67
2023/12/30 15:45:44;;;;;;;;;;;;;;;;;;5041420;28;4636;-68
2023/12/30 15:48:10;;;;;;;;;;;;;;;;;;5044584;28;4888;-67
2023/12/30 15:50:35;;;;;;;;;;;;;;;;;;5043061;28;4479;-67
2023/12/30 15:53:01;;;;;;;;;;;;;;;;;;5044297;28;5029;-68
2023/12/30 15:55:26;;;;;;;;;;;;;;;;;;5040978;28;3679;-68
2023/12/30 15:57:52;;;;;;;;;;;;;;;;;;5041406;28;4707;-68
2023/12/30 16:00:17;;;;;;;;;;;;;;;;;;5039543;28;5025;-68
2023/12/30 16:02:42;;;;;;;;;;;;;;;;;;5042729;28;5154;-67
2023/12/30 16:05:07;;;;;;;;;;;;;;;;;;5038432;28;5695;-68
2023/12/30 16:07:33;;;;;;;;;;;;;;;;;;5034585;28;5290;-68
2023/12/30 16:09:58;;;;;;;;;;;;;;;;;;5042301;28;3324;-68
2023/12/30 16:12:23;;;;;;;;;;;;;;;;;;5043930;28;5301;-68
2023/12/30 16:14:49;;;;;;;;;;;;;;;;;;5045537;28;5046;-67
2023/12/30 16:17:14;;;;;;;;;;;;;;;;;;5041740;28;5125;-68
2023/12/30 16:19:40;;;;;;;;;;;;;;;;;;5030519;28;4504;-67
2023/12/30 16:22:05;;;;;;;;;;;;;;;;;;5047473;28;3664;-68
2023/12/30 16:24:31;;;;;;;;;;;;;;;;;;5036547;28;4525;-68
2023/12/30 16:26:57;;;;;;;;;;;;;;;;;;5042245;28;4796;-68
2023/12/30 16:29:22;;;;;;;;;;;;;;;;;;5043001;28;4886;-67
2023/12/30 16:31:48;;;;;;;;;;;;;;;;;;5038332;28;5120;-67
2023/12/30 16:34:13;;;;;;;;;;;;;;;;;;5041226;28;5019;-68
2023/12/30 16:36:39;;;;;;;;;;;;;;;;;;5046223;28;5297;-67
2023/12/30 16:39:04;;;;;;;;;;;;;;;;;;5047518;28;4509;-67
2023/12/30 16:41:30;;;;;;;;;;;;;;;;;;5039403;28;5092;-68
2023/12/30 16:43:57;;;;;;;;;;;;;;;;;;5047117;28;5190;-69
2023/12/30 16:46:22;;;;;;;;;;;;;;;;;;5049821;28;1424;-67
2023/12/30 16:48:48;;;;;;;;;;;;;;;;;;5045696;28;4958;-68
2023/12/30 16:51:13;;;;;;;;;;;;;;;;;;5048094;28;4747;-68
2023/12/30 16:53:38;;;;;;;;;;;;;;;;;;5045991;28;4676;-68